createdAt,value
2023-05-25T00:02:06.387Z,5.17
2023-05-25T00:04:37.116Z,5.00
2023-05-25T00:07:06.607Z,5.53
2023-05-25T00:09:37.143Z,5.43
2023-05-25T00:12:06.938Z,6.30
2023-05-25T00:14:36.247Z,6.30
2023-05-25T00:17:05.567Z,5.80
2023-05-25T00:19:36.116Z,6.93
2023-05-25T00:22:05.578Z,7.00
2023-05-25T00:24:34.680Z,5.93
2023-05-25T00:27:04.119Z,6.70
2023-05-25T00:29:33.200Z,7.33
2023-05-25T00:32:03.572Z,7.70
2023-05-25T00:34:32.626Z,7.23
2023-05-25T00:37:03.707Z,6.87
2023-05-25T00:39:32.764Z,7.07
2023-05-25T00:42:04.826Z,7.47
2023-05-25T00:44:34.182Z,7.60
2023-05-25T00:47:04.271Z,7.57
2023-05-25T00:49:36.371Z,7.87
2023-05-25T00:52:07.510Z,7.27
2023-05-25T00:54:37.680Z,6.37
2023-05-25T00:57:10.657Z,7.10
2023-05-25T00:59:43.879Z,7.27
2023-05-25T01:02:17.170Z,6.20
2023-05-25T01:04:53.104Z,7.00
2023-05-25T01:07:26.171Z,7.23
2023-05-25T01:10:01.544Z,6.70
2023-05-25T01:12:31.532Z,7.03
2023-05-25T01:15:02.926Z,6.00
2023-05-25T01:17:32.309Z,7.43
2023-05-25T01:20:10.493Z,6.60
2023-05-25T01:22:46.614Z,5.93
2023-05-25T01:25:21.927Z,6.00
2023-05-25T01:27:57.538Z,6.53
2023-05-25T01:30:29.392Z,6.23
2023-05-25T01:33:00.926Z,6.57
2023-05-25T01:35:32.360Z,6.77
2023-05-25T01:38:03.167Z,7.63
2023-05-25T01:40:32.265Z,7.33
2023-05-25T01:43:03.556Z,6.60
2023-05-25T01:45:34.181Z,7.07
2023-05-25T01:48:11.156Z,7.93
2023-05-25T01:50:49.576Z,6.83
2023-05-25T01:53:23.772Z,7.40
2023-05-25T01:55:59.808Z,7.33
2023-05-25T01:58:36.561Z,7.77
2023-05-25T02:01:06.141Z,7.27
2023-05-25T02:03:35.352Z,7.80
2023-05-25T02:06:05.484Z,8.20
2023-05-25T02:08:38.541Z,7.40
2023-05-25T02:11:07.789Z,8.57
2023-05-25T02:13:36.856Z,8.20
2023-05-25T02:16:06.262Z,7.73
2023-05-25T02:18:35.925Z,7.60
2023-05-25T02:21:05.174Z,8.83
2023-05-25T02:23:34.278Z,7.90
2023-05-25T02:26:04.727Z,7.80
2023-05-25T02:28:33.803Z,7.53
2023-05-25T02:31:03.055Z,8.27
2023-05-25T02:33:32.137Z,8.17
2023-05-25T02:36:01.206Z,8.70
2023-05-25T02:38:30.702Z,8.87
2023-05-25T02:41:00.350Z,8.93
2023-05-25T02:43:30.800Z,9.07
2023-05-25T02:45:59.853Z,8.17
2023-05-25T02:48:28.928Z,9.60
2023-05-25T02:50:58.019Z,8.43
2023-05-25T02:53:27.155Z,8.57
2023-05-25T02:55:56.603Z,9.60
2023-05-25T02:58:30.110Z,8.77
2023-05-25T03:01:18.156Z,8.43
2023-05-25T03:03:52.613Z,8.30
2023-05-25T03:06:26.180Z,9.40
2023-05-25T03:09:01.538Z,8.80
2023-05-25T03:11:30.654Z,9.33
2023-05-25T03:14:02.157Z,8.37
2023-05-25T03:16:35.870Z,7.90
2023-05-25T03:19:06.269Z,7.80
2023-05-25T03:21:38.135Z,7.30
2023-05-25T03:24:07.782Z,8.17
2023-05-25T03:26:36.894Z,7.93
2023-05-25T03:29:08.885Z,8.23
2023-05-25T03:31:38.067Z,8.17
2023-05-25T03:34:07.347Z,8.47
2023-05-25T03:36:38.926Z,7.47
2023-05-25T03:39:10.088Z,6.33
2023-05-25T03:41:39.269Z,7.93
2023-05-25T03:44:10.731Z,6.63
2023-05-25T03:46:40.639Z,6.20
2023-05-25T03:49:13.693Z,7.50
2023-05-25T03:51:43.672Z,6.93
2023-05-25T03:54:13.587Z,6.63
2023-05-25T03:56:42.654Z,7.67
2023-05-25T03:59:13.149Z,7.20
2023-05-25T04:01:42.953Z,7.17
2023-05-25T04:04:12.047Z,6.80
2023-05-25T04:06:42.674Z,6.23
2023-05-25T04:09:11.757Z,5.70
2023-05-25T04:11:40.826Z,5.80
2023-05-25T04:14:10.122Z,6.80
2023-05-25T04:16:45.040Z,5.37
2023-05-25T04:19:15.786Z,5.33
2023-05-25T04:21:44.939Z,5.33
2023-05-25T04:24:14.275Z,5.63
2023-05-25T04:26:43.677Z,6.20
2023-05-25T04:29:13.591Z,5.60
2023-05-25T04:31:54.630Z,5.63
2023-05-25T04:34:46.800Z,4.87
2023-05-25T04:37:21.631Z,5.20
2023-05-25T04:39:51.374Z,4.77
2023-05-25T04:42:23.923Z,5.60
2023-05-25T04:44:56.461Z,5.03
2023-05-25T04:47:27.330Z,5.03
2023-05-25T04:49:57.264Z,4.50
2023-05-25T04:52:26.410Z,4.83
2023-05-25T04:54:56.490Z,4.83
2023-05-25T04:57:27.986Z,5.60
2023-05-25T04:59:57.106Z,5.00
2023-05-25T05:02:28.179Z,4.67
2023-05-25T05:04:57.327Z,4.67
2023-05-25T05:07:26.440Z,5.13
2023-05-25T05:09:55.629Z,4.80
2023-05-25T05:12:24.746Z,3.97
2023-05-25T05:14:56.011Z,4.77
2023-05-25T05:17:26.388Z,5.20
2023-05-25T05:19:57.065Z,4.00
2023-05-25T05:22:27.193Z,4.53
2023-05-25T05:24:56.353Z,3.87
2023-05-25T05:27:27.185Z,4.30
2023-05-25T05:30:01.603Z,2.90
2023-05-25T05:32:30.943Z,3.80
2023-05-25T05:35:02.303Z,3.27
2023-05-25T05:37:40.852Z,2.83
2023-05-25T05:40:11.850Z,2.70
2023-05-25T05:42:43.679Z,3.00
2023-05-25T05:45:13.435Z,2.60
2023-05-25T05:47:42.736Z,3.20
2023-05-25T05:50:13.658Z,2.25
2023-05-25T05:52:43.959Z,2.80
2023-05-25T05:55:13.656Z,2.72
2023-05-25T05:57:44.346Z,3.55
2023-05-25T06:00:16.121Z,2.80
2023-05-25T06:02:45.454Z,3.05
2023-05-25T06:05:22.366Z,2.60
2023-05-25T06:07:53.707Z,2.40
2023-05-25T06:10:24.300Z,2.65
2023-05-25T06:12:54.127Z,3.17
2023-05-25T06:15:23.892Z,2.22
2023-05-25T06:17:56.934Z,2.63
2023-05-25T06:20:28.322Z,3.45
2023-05-25T06:22:57.492Z,3.08
2023-05-25T06:25:26.632Z,2.58
2023-05-25T06:27:57.593Z,2.67
2023-05-25T06:30:26.731Z,3.40
2023-05-25T06:32:56.029Z,3.28
2023-05-25T06:35:26.879Z,2.70
2023-05-25T06:37:57.362Z,2.58
2023-05-25T06:40:26.632Z,2.60
2023-05-25T06:42:56.142Z,3.13
2023-05-25T06:45:40.997Z,2.63
2023-05-25T06:48:10.352Z,2.92
2023-05-25T06:50:40.978Z,2.42
2023-05-25T06:53:10.906Z,2.17
2023-05-25T06:55:40.003Z,2.42
2023-05-25T06:58:09.158Z,2.30
2023-05-25T07:00:38.212Z,3.05
2023-05-25T07:03:07.325Z,2.50
2023-05-25T07:05:36.584Z,2.55
2023-05-25T07:08:07.124Z,3.00
2023-05-25T07:10:36.290Z,2.80
2023-05-25T07:13:05.567Z,2.83
2023-05-25T07:15:34.657Z,2.67
2023-05-25T07:18:03.822Z,2.75
2023-05-25T07:20:34.358Z,2.70
2023-05-25T07:23:03.714Z,2.80
2023-05-25T07:25:34.578Z,2.40
2023-05-25T07:28:04.019Z,2.75
2023-05-25T07:30:33.368Z,2.95
2023-05-25T07:33:02.852Z,2.88
2023-05-25T07:35:34.186Z,2.90
2023-05-25T07:38:04.922Z,2.80
2023-05-25T07:40:35.825Z,3.85
2023-05-25T07:43:07.473Z,3.15
2023-05-25T07:45:37.521Z,3.00
2023-05-25T07:48:07.813Z,3.38
2023-05-25T07:50:37.169Z,3.13
2023-05-25T07:53:06.281Z,3.53
2023-05-25T07:55:36.808Z,3.22
2023-05-25T07:58:07.421Z,2.97
2023-05-25T08:00:36.613Z,2.97
2023-05-25T08:03:05.973Z,3.53
2023-05-25T08:05:35.226Z,2.33
2023-05-25T08:08:04.485Z,3.28
2023-05-25T08:10:33.677Z,2.67
2023-05-25T08:13:04.138Z,3.00
2023-05-25T08:15:33.261Z,3.30
2023-05-25T08:18:04.379Z,2.55
2023-05-25T08:20:33.831Z,3.00
2023-05-25T08:23:02.965Z,3.17
2023-05-25T08:25:32.161Z,3.22
2023-05-25T08:28:01.241Z,3.08
2023-05-25T08:30:32.312Z,2.83
2023-05-25T08:33:01.443Z,3.10
2023-05-25T08:35:30.585Z,3.42
2023-05-25T08:37:59.738Z,2.92
2023-05-25T08:40:30.119Z,3.20
2023-05-25T08:43:02.264Z,3.35
2023-05-25T08:45:34.793Z,3.13
2023-05-25T08:48:12.353Z,3.65
2023-05-25T08:50:42.366Z,2.97
2023-05-25T08:53:13.720Z,3.70
2023-05-25T08:55:45.957Z,3.08
2023-05-25T08:58:20.819Z,3.03
2023-05-25T09:00:59.483Z,3.15
2023-05-25T09:03:30.846Z,3.13
2023-05-25T09:06:00.826Z,2.95
2023-05-25T09:08:30.993Z,2.90
2023-05-25T09:11:02.284Z,3.10
2023-05-25T09:13:31.654Z,2.95
2023-05-25T09:16:02.265Z,2.42
2023-05-25T09:18:31.669Z,2.92
2023-05-25T09:21:02.726Z,3.13
2023-05-25T09:23:32.477Z,2.40
2023-05-25T09:26:03.310Z,3.58
2023-05-25T09:28:32.419Z,3.30
2023-05-25T09:31:03.004Z,2.78
2023-05-25T09:33:32.193Z,2.83
2023-05-25T09:36:02.236Z,2.85
2023-05-25T09:38:32.520Z,3.28
2023-05-25T09:41:02.237Z,2.90
2023-05-25T09:43:41.839Z,2.72
2023-05-25T09:46:15.951Z,2.95
2023-05-25T09:48:45.716Z,2.75
2023-05-25T09:51:14.947Z,3.08
2023-05-25T09:53:44.612Z,2.85
2023-05-25T09:56:13.767Z,3.13
2023-05-25T09:58:43.164Z,3.03
2023-05-25T10:01:14.559Z,3.08
2023-05-25T10:03:55.634Z,2.78
2023-05-25T10:06:34.210Z,3.33
2023-05-25T10:09:04.853Z,3.42
2023-05-25T10:11:36.829Z,3.00
2023-05-25T10:14:08.658Z,3.15
2023-05-25T10:16:41.902Z,3.10
2023-05-25T10:19:18.204Z,2.60
2023-05-25T10:21:53.534Z,3.15
2023-05-25T10:24:32.043Z,2.80
2023-05-25T10:27:14.517Z,2.63
2023-05-25T10:29:45.515Z,3.72
2023-05-25T10:32:17.456Z,2.80
2023-05-25T10:34:47.444Z,3.10
2023-05-25T10:37:17.235Z,3.42
2023-05-25T10:39:47.012Z,3.25
2023-05-25T10:42:18.334Z,2.88
2023-05-25T10:44:47.924Z,3.20
2023-05-25T10:47:18.651Z,3.28
2023-05-25T10:49:55.907Z,3.00
2023-05-25T10:52:29.744Z,3.55
2023-05-25T10:55:01.637Z,2.88
2023-05-25T10:57:31.141Z,3.58
2023-05-25T11:00:06.780Z,3.05
2023-05-25T11:02:55.728Z,3.15
2023-05-25T11:05:39.301Z,3.58
2023-05-25T11:08:09.938Z,3.60
2023-05-25T11:10:59.932Z,3.50
2023-05-25T11:13:39.771Z,3.28
2023-05-25T11:16:21.096Z,3.67
2023-05-25T11:18:57.729Z,3.30
2023-05-25T11:21:46.002Z,3.13
2023-05-25T11:24:17.382Z,3.58
2023-05-25T11:27:01.506Z,3.28
2023-05-25T11:29:36.174Z,3.47
2023-05-25T11:32:05.815Z,3.15
2023-05-25T11:34:36.356Z,3.38
2023-05-25T11:37:06.375Z,3.33
2023-05-25T11:39:35.461Z,3.35
2023-05-25T11:42:06.921Z,3.35
2023-05-25T11:44:39.009Z,3.30
2023-05-25T11:47:09.985Z,3.65
2023-05-25T11:49:45.978Z,3.28
2023-05-25T11:52:16.503Z,3.33
2023-05-25T11:54:46.596Z,3.08
2023-05-25T11:57:17.882Z,3.45
2023-05-25T11:59:51.174Z,3.47
2023-05-25T12:02:21.034Z,3.50
2023-05-25T12:04:59.198Z,3.05
2023-05-25T12:07:29.894Z,3.22
2023-05-25T12:10:09.847Z,3.35
2023-05-25T12:12:41.523Z,3.53
2023-05-25T12:15:12.071Z,3.25
2023-05-25T12:17:43.876Z,3.05
2023-05-25T12:20:15.950Z,4.05
2023-05-25T12:22:46.411Z,3.65
2023-05-25T12:25:19.722Z,2.80
2023-05-25T12:27:48.994Z,3.05
2023-05-25T12:30:18.146Z,3.38
2023-05-25T12:33:02.242Z,3.10
2023-05-25T12:35:47.660Z,3.70
2023-05-25T12:38:21.486Z,3.08
2023-05-25T12:41:06.704Z,3.70
2023-05-25T12:43:40.166Z,3.78
2023-05-25T12:46:09.327Z,3.65
2023-05-25T12:48:38.440Z,2.85
2023-05-25T12:51:10.419Z,3.90
2023-05-25T12:53:49.143Z,2.97
2023-05-25T12:56:18.371Z,3.78
2023-05-25T12:58:47.518Z,3.25
2023-05-25T13:01:16.711Z,3.38
2023-05-25T13:03:45.956Z,3.05
2023-05-25T13:06:16.458Z,3.83
2023-05-25T13:08:46.864Z,3.50
2023-05-25T13:11:16.560Z,3.53
2023-05-25T13:13:46.073Z,3.13
2023-05-25T13:16:15.225Z,3.83
2023-05-25T13:18:44.296Z,3.50
2023-05-25T13:21:14.814Z,3.30
2023-05-25T13:23:43.875Z,3.47
2023-05-25T13:26:13.255Z,3.88
2023-05-25T13:28:42.650Z,3.42
2023-05-25T13:31:11.781Z,3.42
2023-05-25T13:33:40.912Z,3.42
2023-05-25T13:36:10.169Z,3.63
2023-05-25T13:38:40.680Z,3.63
2023-05-25T13:41:09.976Z,3.15
2023-05-25T13:43:39.276Z,3.75
2023-05-25T13:46:11.583Z,3.70
2023-05-25T13:48:47.331Z,3.35
2023-05-25T13:51:17.003Z,3.78
2023-05-25T13:53:48.916Z,3.13
2023-05-25T13:56:18.268Z,4.53
2023-05-25T13:58:47.332Z,3.20
2023-05-25T14:01:16.522Z,3.47
2023-05-25T14:03:46.803Z,3.28
2023-05-25T14:06:16.093Z,3.88
2023-05-25T14:08:46.524Z,3.75
2023-05-25T14:11:16.263Z,3.45
2023-05-25T14:13:46.240Z,3.65
2023-05-25T14:16:15.401Z,2.65
2023-05-25T14:18:44.601Z,3.42
2023-05-25T14:21:13.686Z,3.05
2023-05-25T14:23:42.862Z,3.35
2023-05-25T14:26:13.499Z,3.47
2023-05-25T14:28:42.598Z,3.63
2023-05-25T14:31:12.945Z,2.95
2023-05-25T14:33:43.113Z,3.97
2023-05-25T14:36:12.504Z,4.05
2023-05-25T14:38:41.566Z,3.20
2023-05-25T14:41:12.026Z,3.63
2023-05-25T14:43:41.124Z,3.22
2023-05-25T14:46:10.690Z,3.45
2023-05-25T14:48:39.977Z,2.45
2023-05-25T14:51:09.209Z,2.95
2023-05-25T14:53:38.524Z,3.50
2023-05-25T14:56:08.962Z,2.78
2023-05-25T14:58:41.448Z,2.90
2023-05-25T15:01:10.737Z,3.20
2023-05-25T15:03:40.117Z,3.45
2023-05-25T15:06:09.829Z,3.30
2023-05-25T15:08:39.198Z,3.25
2023-05-25T15:11:09.738Z,3.67
2023-05-25T15:13:40.869Z,3.33
2023-05-25T15:16:12.904Z,3.15
2023-05-25T15:18:42.061Z,3.63
2023-05-25T15:21:12.350Z,3.00
2023-05-25T15:23:41.676Z,3.33
2023-05-25T15:26:11.690Z,3.28
2023-05-25T15:28:42.153Z,3.85
2023-05-25T15:31:11.181Z,3.40
2023-05-25T15:33:52.086Z,4.00
2023-05-25T15:36:25.597Z,3.08
2023-05-25T15:38:54.705Z,3.22
2023-05-25T15:41:23.786Z,3.05
2023-05-25T15:43:58.425Z,3.28
2023-05-25T15:46:28.138Z,3.45
2023-05-25T15:48:57.349Z,3.33
2023-05-25T15:51:26.449Z,3.00
2023-05-25T15:53:55.686Z,2.88
2023-05-25T15:56:24.883Z,3.13
2023-05-25T15:58:55.370Z,3.25
2023-05-25T16:01:24.520Z,2.83
2023-05-25T16:03:53.726Z,3.33
2023-05-25T16:06:22.789Z,2.90
2023-05-25T16:08:51.870Z,3.50
2023-05-25T16:11:21.252Z,3.10
2023-05-25T16:13:50.397Z,3.33
2023-05-25T16:16:20.877Z,3.53
2023-05-25T16:18:50.415Z,3.53
2023-05-25T16:21:19.585Z,3.50
2023-05-25T16:23:48.636Z,3.05
2023-05-25T16:26:17.735Z,3.33
2023-05-25T16:28:46.899Z,3.20
2023-05-25T16:31:16.594Z,3.38
2023-05-25T16:33:47.883Z,3.15
2023-05-25T16:36:17.163Z,3.40
2023-05-25T16:38:46.868Z,3.38
2023-05-25T16:41:16.163Z,3.17
2023-05-25T16:43:45.303Z,3.00
2023-05-25T16:46:14.525Z,3.13
2023-05-25T16:48:43.658Z,3.63
2023-05-25T16:51:15.275Z,2.85
2023-05-25T16:53:45.539Z,2.88
2023-05-25T16:56:15.161Z,3.50
2023-05-25T16:58:44.276Z,3.28
2023-05-25T17:01:13.494Z,2.88
2023-05-25T17:03:42.669Z,3.63
2023-05-25T17:06:13.619Z,3.67
2023-05-25T17:08:44.769Z,3.40
2023-05-25T17:11:16.704Z,4.00
2023-05-25T17:13:45.837Z,3.30
2023-05-25T17:16:15.214Z,3.55
2023-05-25T17:18:44.531Z,3.85
2023-05-25T17:21:15.346Z,3.58
2023-05-25T17:23:44.582Z,4.22
2023-05-25T17:26:16.029Z,3.03
2023-05-25T17:28:45.339Z,3.67
2023-05-25T17:31:14.566Z,3.35
2023-05-25T17:33:46.765Z,3.53
2023-05-25T17:36:17.273Z,3.65
2023-05-25T17:38:46.574Z,3.70
2023-05-25T17:41:15.872Z,3.85
2023-05-25T17:43:46.390Z,3.00
2023-05-25T17:46:16.023Z,3.80
2023-05-25T17:48:45.958Z,3.63
2023-05-25T17:51:17.389Z,2.75
2023-05-25T17:53:48.686Z,3.85
2023-05-25T17:56:21.548Z,3.25
2023-05-25T17:58:50.856Z,3.45
2023-05-25T18:01:20.114Z,3.20
2023-05-25T18:03:50.602Z,3.65
2023-05-25T18:06:21.198Z,3.63
2023-05-25T18:08:50.447Z,3.33
2023-05-25T18:11:29.598Z,3.42
2023-05-25T18:13:58.971Z,4.43
2023-05-25T18:16:28.379Z,3.67
2023-05-25T18:18:57.587Z,3.10
2023-05-25T18:21:28.470Z,3.95
2023-05-25T18:24:00.364Z,3.55
2023-05-25T18:26:29.744Z,3.95
2023-05-25T18:28:59.761Z,3.72
2023-05-25T18:31:30.622Z,3.90
2023-05-25T18:34:00.256Z,3.38
2023-05-25T18:36:30.895Z,3.58
2023-05-25T18:39:00.056Z,3.17
2023-05-25T18:41:29.307Z,3.00
2023-05-25T18:43:58.460Z,3.72
2023-05-25T18:46:28.891Z,3.33
2023-05-25T18:48:58.079Z,3.53
2023-05-25T18:51:27.368Z,3.35
2023-05-25T18:53:58.726Z,3.95
2023-05-25T18:56:31.157Z,3.40
2023-05-25T18:59:00.610Z,3.42
2023-05-25T19:01:29.917Z,3.55
2023-05-25T19:03:59.176Z,3.13
2023-05-25T19:06:28.317Z,3.72
2023-05-25T19:08:58.753Z,3.38
2023-05-25T19:11:27.840Z,2.97
2023-05-25T19:13:57.225Z,2.88
2023-05-25T19:16:26.437Z,3.55
2023-05-25T19:18:55.633Z,3.17
2023-05-25T19:21:24.845Z,4.38
2023-05-25T19:23:54.047Z,3.30
2023-05-25T19:26:24.581Z,3.35
2023-05-25T19:28:53.749Z,3.80
2023-05-25T19:31:23.642Z,3.50
2023-05-25T19:33:52.891Z,3.33
2023-05-25T19:36:22.692Z,3.13
2023-05-25T19:38:51.877Z,3.60
2023-05-25T19:41:21.273Z,3.30
2023-05-25T19:43:51.886Z,4.33
2023-05-25T19:46:21.113Z,3.23
2023-05-25T19:48:50.701Z,4.07
2023-05-25T19:51:19.924Z,3.83
2023-05-25T19:53:50.828Z,4.00
2023-05-25T19:56:20.038Z,4.13
2023-05-25T19:58:49.243Z,3.80
2023-05-25T20:01:19.852Z,4.23
2023-05-25T20:03:49.045Z,4.00
2023-05-25T20:06:18.517Z,4.47
2023-05-25T20:08:47.646Z,3.67
2023-05-25T20:11:16.937Z,3.97
2023-05-25T20:13:49.974Z,3.43
2023-05-25T20:16:21.282Z,3.37
2023-05-25T20:18:50.501Z,3.03
2023-05-25T20:21:20.933Z,3.83
2023-05-25T20:23:50.384Z,3.07
2023-05-25T20:26:19.554Z,3.30
2023-05-25T20:28:48.665Z,3.60
2023-05-25T20:31:19.580Z,3.43
2023-05-25T20:33:48.876Z,4.00
2023-05-25T20:36:18.468Z,3.50
2023-05-25T20:38:47.564Z,3.60
2023-05-25T20:41:16.941Z,3.93
2023-05-25T20:43:46.487Z,3.23
2023-05-25T20:46:15.633Z,4.23
2023-05-25T20:48:46.376Z,4.10
2023-05-25T20:51:15.595Z,2.70
2023-05-25T20:53:44.761Z,3.20
2023-05-25T20:56:14.411Z,3.30
2023-05-25T20:58:43.544Z,3.03
2023-05-25T21:01:12.672Z,3.30
2023-05-25T21:03:41.977Z,4.00
2023-05-25T21:06:12.553Z,4.13
2023-05-25T21:08:41.853Z,3.27
2023-05-25T21:11:10.991Z,3.60
2023-05-25T21:13:40.147Z,3.77
2023-05-25T21:16:09.503Z,4.00
2023-05-25T21:18:38.782Z,3.33
2023-05-25T21:21:07.892Z,4.30
2023-05-25T21:23:38.322Z,3.30
2023-05-25T21:26:07.455Z,4.47
2023-05-25T21:28:36.645Z,4.10
2023-05-25T21:31:05.787Z,3.67
2023-05-25T21:33:35.864Z,3.90
2023-05-25T21:36:05.471Z,2.97
2023-05-25T21:38:34.586Z,4.20
2023-05-25T21:41:05.045Z,4.07
2023-05-25T21:43:34.129Z,3.13
2023-05-25T21:46:03.385Z,3.63
2023-05-25T21:48:32.456Z,3.33
2023-05-25T21:51:01.504Z,4.00
2023-05-25T21:53:30.594Z,3.73
2023-05-25T21:55:59.648Z,3.83
2023-05-25T21:58:30.100Z,3.87
2023-05-25T22:00:59.333Z,2.97
2023-05-25T22:03:28.541Z,3.37
2023-05-25T22:05:57.665Z,3.63
2023-05-25T22:08:26.745Z,3.53
2023-05-25T22:10:55.864Z,3.97
2023-05-25T22:13:24.952Z,3.77
2023-05-25T22:15:55.428Z,3.23
2023-05-25T22:18:24.517Z,3.43
2023-05-25T22:20:53.740Z,3.37
2023-05-25T22:23:22.910Z,3.30
2023-05-25T22:25:52.074Z,3.40
2023-05-25T22:28:21.268Z,3.00
2023-05-25T22:30:50.472Z,3.40
2023-05-25T22:33:20.959Z,3.20
2023-05-25T22:35:50.159Z,4.17
2023-05-25T22:38:19.264Z,2.83
2023-05-25T22:40:48.393Z,3.13
2023-05-25T22:43:17.627Z,3.47
2023-05-25T22:45:46.870Z,3.63
2023-05-25T22:48:16.159Z,3.53
2023-05-25T22:50:46.701Z,3.87
2023-05-25T22:53:15.787Z,3.60
2023-05-25T22:55:47.159Z,3.87
2023-05-25T22:58:16.513Z,3.53
2023-05-25T23:00:45.618Z,3.00
2023-05-25T23:03:14.878Z,4.47
2023-05-25T23:05:45.729Z,3.63
2023-05-25T23:08:15.026Z,4.07
2023-05-25T23:10:44.194Z,3.37
2023-05-25T23:13:14.321Z,2.83
2023-05-25T23:15:44.555Z,3.80
2023-05-25T23:18:13.868Z,3.07
2023-05-25T23:20:43.030Z,3.70
2023-05-25T23:23:13.555Z,3.30
2023-05-25T23:25:42.810Z,3.33
2023-05-25T23:28:12.079Z,3.70
2023-05-25T23:30:41.165Z,4.87
2023-05-25T23:33:10.426Z,4.07
2023-05-25T23:35:39.692Z,3.60
2023-05-25T23:38:08.736Z,3.33
2023-05-25T23:40:39.111Z,3.60
2023-05-25T23:43:08.258Z,3.50
2023-05-25T23:45:37.378Z,4.80
2023-05-25T23:48:06.694Z,4.07
2023-05-25T23:50:35.924Z,3.60
2023-05-25T23:53:04.977Z,3.13
2023-05-25T23:55:35.100Z,3.40
2023-05-25T23:58:05.681Z,3.57
